Time;durP1;ratioP1;P1;durP2;ratioP2;P2;SDS_P1;SDS_P2;PMS_P1;PMS_P2;Temp;Humidity;BMP_temperature;BMP_pressure;BME280_temperature;BME280_humidity;BME280_pressure;Samples;Min_cycle;Max_cycle;Signal;HPM_P1;HPM_P2
2022/05/02 00:00:56;;;;;;;7.30;5.60;;;;;;;;;;6243827;28;20045;-69
2022/05/02 00:03:58;;;;;;;6.97;5.53;;;;;;;;;;6249834;28;20057;-69
2022/05/02 00:07:00;;;;;;;6.60;5.10;;;;;;;;;;6242651;28;20065;-69
2022/05/02 00:10:02;;;;;;;7.53;5.55;;;;;;;;;;6248201;28;20072;-69
2022/05/02 00:13:04;;;;;;;6.22;5.40;;;;;;;;;;6247513;28;20054;-69
2022/05/02 00:16:08;;;;;;;6.95;5.70;;;;;;;;;;6248919;28;20053;-69
2022/05/02 00:19:09;;;;;;;;;;;;;;;;;;6251152;28;20057;-70
2022/05/02 00:22:11;;;;;;;7.60;5.70;;;;;;;;;;6255781;28;19925;-70
2022/05/02 00:25:13;;;;;;;7.13;5.55;;;;;;;;;;6252052;28;20054;-70
2022/05/02 00:28:15;;;;;;;7.20;5.65;;;;;;;;;;6254917;28;20115;-69
2022/05/02 00:31:18;;;;;;;7.57;5.63;;;;;;;;;;6253582;28;20049;-70
2022/05/02 00:34:20;;;;;;;7.88;6.28;;;;;;;;;;6255332;28;20386;-69
2022/05/02 00:37:21;;;;;;;8.18;5.82;;;;;;;;;;6253874;28;20061;-69
2022/05/02 00:40:23;;;;;;;7.25;5.35;;;;;;;;;;6254119;28;20053;-70
2022/05/02 00:43:24;;;;;;;7.88;5.65;;;;;;;;;;6246310;28;20057;-68
2022/05/02 00:46:27;;;;;;;7.85;5.68;;;;;;;;;;6248439;28;20103;-70
2022/05/02 00:49:29;;;;;;;7.87;5.63;;;;;;;;;;6250348;28;20100;-69
2022/05/02 00:52:31;;;;;;;7.63;5.78;;;;;;;;;;6250304;28;20387;-70
2022/05/02 00:55:33;;;;;;;7.00;5.68;;;;;;;;;;6254333;28;20046;-69
2022/05/02 00:58:35;;;;;;;7.68;5.50;;;;;;;;;;6254446;28;20100;-69
2022/05/02 01:01:38;;;;;;;6.72;5.70;;;;;;;;;;6252925;28;20053;-70
2022/05/02 01:04:39;;;;;;;6.90;5.68;;;;;;;;;;6254715;28;20208;-67
2022/05/02 01:07:42;;;;;;;8.57;6.13;;;;;;;;;;6249149;28;20057;-70
2022/05/02 01:10:43;;;;;;;7.43;5.75;;;;;;;;;;6247584;28;20057;-69
2022/05/02 01:13:47;;;;;;;7.25;5.53;;;;;;;;;;6248831;28;20042;-69
2022/05/02 01:16:50;;;;;;;7.63;5.53;;;;;;;;;;6250136;28;20371;-69
2022/05/02 01:19:52;;;;;;;8.43;5.78;;;;;;;;;;6246914;28;20061;-70
2022/05/02 01:22:55;;;;;;;7.47;5.63;;;;;;;;;;6248439;28;20375;-70
2022/05/02 01:25:56;;;;;;;6.88;5.35;;;;;;;;;;6254678;28;20104;-70
2022/05/02 01:28:59;;;;;;;6.72;5.68;;;;;;;;;;6249732;28;20054;-68
2022/05/02 01:32:02;;;;;;;7.30;5.93;;;;;;;;;;6250140;28;20260;-69
2022/05/02 01:35:04;;;;;;;7.82;5.50;;;;;;;;;;6250615;28;20459;-69
2022/05/02 01:38:07;;;;;;;6.35;4.80;;;;;;;;;;6247319;28;20053;-69
2022/05/02 01:41:08;;;;;;;4.97;4.37;;;;;;;;;;6250388;28;20053;-69
2022/05/02 01:44:10;;;;;;;6.35;4.80;;;;;;;;;;6252021;28;20053;-70
2022/05/02 01:47:12;;;;;;;5.65;4.20;;;;;;;;;;6252167;28;20298;-70
2022/05/02 01:50:13;;;;;;;6.75;4.57;;;;;;;;;;6257210;28;20061;-69
2022/05/02 01:53:17;;;;;;;6.82;4.68;;;;;;;;;;6254071;28;20087;-70
2022/05/02 01:56:18;;;;;;;4.97;4.43;;;;;;;;;;6256538;28;20316;-70
2022/05/02 01:59:20;;;;;;;7.07;5.13;;;;;;;;;;6251672;28;20303;-66
2022/05/02 02:02:21;;;;;;;5.60;4.57;;;;;;;;;;6252904;28;20046;-69
2022/05/02 02:08:40;;;;;;;5.53;4.10;;;;;;;;;;6233226;28;20061;-69
2022/05/02 02:11:42;;;;;;;5.32;4.50;;;;;;;;;;6249893;28;20060;-69
2022/05/02 02:14:43;;;;;;;7.57;4.32;;;;;;;;;;6251580;28;20328;-69
2022/05/02 02:17:45;;;;;;;6.63;4.80;;;;;;;;;;6253305;28;20236;-69
2022/05/02 02:20:49;;;;;;;5.95;5.03;;;;;;;;;;6251932;28;20100;-69
2022/05/02 02:23:52;;;;;;;6.90;4.68;;;;;;;;;;6252871;28;20081;-69
2022/05/02 02:26:54;;;;;;;7.20;5.37;;;;;;;;;;6250253;28;20057;-70
2022/05/02 02:29:55;;;;;;;5.47;4.70;;;;;;;;;;6247302;28;20092;-70
2022/05/02 02:32:57;;;;;;;5.57;4.80;;;;;;;;;;6251001;28;20088;-70
2022/05/02 02:35:59;;;;;;;5.60;4.70;;;;;;;;;;6249565;28;20045;-70
2022/05/02 02:39:02;;;;;;;7.57;5.07;;;;;;;;;;6249826;28;20285;-69
2022/05/02 02:42:04;;;;;;;7.32;5.15;;;;;;;;;;6251086;28;20091;-71
2022/05/02 02:45:07;;;;;;;5.82;4.43;;;;;;;;;;6249527;28;20049;-70
2022/05/02 02:48:09;;;;;;;6.38;4.60;;;;;;;;;;6251045;28;20367;-70
2022/05/02 02:51:11;;;;;;;5.65;4.63;;;;;;;;;;6248381;28;20296;-68
2022/05/02 02:54:14;;;;;;;5.88;4.88;;;;;;;;;;6247666;28;20053;-70
2022/05/02 02:57:15;;;;;;;7.50;4.85;;;;;;;;;;6248597;28;20065;-70
2022/05/02 03:00:18;;;;;;;7.30;5.00;;;;;;;;;;6251299;28;20328;-70
2022/05/02 03:03:19;;;;;;;6.35;4.97;;;;;;;;;;6249495;28;20107;-70
2022/05/02 03:06:20;;;;;;;7.07;4.53;;;;;;;;;;6248851;28;20053;-69
2022/05/02 03:09:23;;;;;;;7.32;4.75;;;;;;;;;;6243714;28;20057;-70
2022/05/02 03:12:25;;;;;;;7.60;5.35;;;;;;;;;;6249844;28;20072;-69
2022/05/02 03:15:27;;;;;;;9.90;5.43;;;;;;;;;;6248595;28;20052;-69
2022/05/02 03:18:31;;;;;;;6.75;5.07;;;;;;;;;;6250476;28;20068;-69
2022/05/02 03:21:32;;;;;;;8.65;4.95;;;;;;;;;;6248352;28;20061;-69
2022/05/02 03:24:35;;;;;;;7.00;5.25;;;;;;;;;;6246335;28;20132;-70
2022/05/02 03:27:37;;;;;;;7.93;5.27;;;;;;;;;;6246618;28;20045;-70
2022/05/02 03:30:39;;;;;;;6.10;4.78;;;;;;;;;;6249144;28;20054;-69
2022/05/02 03:33:40;;;;;;;8.55;5.45;;;;;;;;;;6246926;28;20045;-70
2022/05/02 03:36:42;;;;;;;7.43;5.30;;;;;;;;;;6248579;28;20053;-69
2022/05/02 03:39:45;;;;;;;6.45;5.65;;;;;;;;;;6246622;28;20327;-69
2022/05/02 03:42:46;;;;;;;7.77;5.47;;;;;;;;;;6247924;28;20056;-69
2022/05/02 03:45:48;;;;;;;6.65;5.45;;;;;;;;;;6249950;28;20273;-69
2022/05/02 03:48:50;;;;;;;7.50;5.10;;;;;;;;;;6248856;28;20049;-69
2022/05/02 03:51:51;;;;;;;6.93;4.97;;;;;;;;;;6243224;28;20062;-70
2022/05/02 03:54:54;;;;;;;7.43;5.55;;;;;;;;;;6241090;28;20080;-70
2022/05/02 03:57:56;;;;;;;7.78;5.20;;;;;;;;;;6249691;28;20053;-70
2022/05/02 04:00:57;;;;;;;12.38;5.70;;;;;;;;;;6244065;28;20057;-69
2022/05/02 04:03:59;;;;;;;6.88;5.28;;;;;;;;;;6241974;28;20069;-69
2022/05/02 04:07:01;;;;;;;9.05;5.32;;;;;;;;;;6252068;28;20057;-69
2022/05/02 04:10:04;;;;;;;10.77;5.43;;;;;;;;;;6245948;28;20299;-69
2022/05/02 04:13:06;;;;;;;7.35;5.20;;;;;;;;;;6244531;28;20049;-69
2022/05/02 04:16:07;;;;;;;6.10;5.05;;;;;;;;;;6255272;28;20312;-70
2022/05/02 04:19:09;;;;;;;10.68;5.18;;;;;;;;;;6250508;28;20310;-69
2022/05/02 04:22:11;;;;;;;7.72;5.10;;;;;;;;;;6246810;28;20107;-69
2022/05/02 04:25:14;;;;;;;8.73;5.30;;;;;;;;;;6249169;28;20068;-69
2022/05/02 04:28:15;;;;;;;6.93;4.80;;;;;;;;;;6252212;28;20057;-70
2022/05/02 04:31:17;;;;;;;9.45;5.13;;;;;;;;;;6250443;28;20123;-68
2022/05/02 04:34:18;;;;;;;5.82;4.95;;;;;;;;;;6244079;28;20236;-69
2022/05/02 04:37:20;;;;;;;6.13;4.75;;;;;;;;;;6250208;28;20045;-70
2022/05/02 04:40:23;;;;;;;6.10;4.82;;;;;;;;;;6248606;28;20069;-68
2022/05/02 04:43:25;;;;;;;7.00;4.72;;;;;;;;;;6248313;28;20060;-70
2022/05/02 04:46:27;;;;;;;8.73;5.35;;;;;;;;;;6245392;28;20053;-69
2022/05/02 04:49:29;;;;;;;9.60;5.57;;;;;;;;;;6245085;28;20105;-70
2022/05/02 04:52:31;;;;;;;7.43;5.15;;;;;;;;;;6250379;28;20057;-69
2022/05/02 04:55:33;;;;;;;6.03;4.80;;;;;;;;;;6240531;28;20057;-69
2022/05/02 04:58:35;;;;;;;7.38;5.20;;;;;;;;;;6245360;28;20057;-69
2022/05/02 05:01:37;;;;;;;7.53;5.40;;;;;;;;;;6251090;28;20217;-69
2022/05/02 05:04:38;;;;;;;7.05;4.85;;;;;;;;;;6255233;28;20091;-68
2022/05/02 05:07:40;;;;;;;6.20;4.95;;;;;;;;;;6250476;28;20057;-68
2022/05/02 05:10:49;;;;;;;7.78;5.38;;;;;;;;;;6255526;28;20049;-69
2022/05/02 05:17:28;;;;;;;9.20;5.40;;;;;;;;;;6254092;28;20444;-68
2022/05/02 05:20:36;;;;;;;11.20;5.18;;;;;;;;;;6249926;28;20045;-68
2022/05/02 05:24:06;;;;;;;7.65;5.53;;;;;;;;;;6247368;28;20065;-69
2022/05/02 05:27:17;;;;;;;6.88;5.03;;;;;;;;;;6247992;28;20084;-69
2022/05/02 05:30:20;;;;;;;9.35;6.05;;;;;;;;;;6254520;28;20099;-69
2022/05/02 05:33:26;;;;;;;10.60;6.00;;;;;;;;;;6251846;28;20467;-67
2022/05/02 05:36:44;;;;;;;9.35;6.38;;;;;;;;;;6250158;28;20065;-69
2022/05/02 05:39:48;;;;;;;7.50;5.63;;;;;;;;;;6248473;28;20105;-69
2022/05/02 05:42:58;;;;;;;7.05;5.90;;;;;;;;;;6245553;28;20104;-69
2022/05/02 05:46:11;;;;;;;10.27;5.55;;;;;;;;;;6253960;28;20340;-69
2022/05/02 05:49:20;;;;;;;7.63;5.70;;;;;;;;;;6248051;28;20447;-69
2022/05/02 05:52:28;;;;;;;8.52;6.38;;;;;;;;;;6250214;28;20113;-69
2022/05/02 05:55:42;;;;;;;9.90;6.07;;;;;;;;;;6251409;28;20069;-69
2022/05/02 05:58:48;;;;;;;15.30;6.63;;;;;;;;;;6252186;28;20061;-68
2022/05/02 06:02:05;;;;;;;9.30;6.05;;;;;;;;;;6253186;28;20053;-69
2022/05/02 06:05:08;;;;;;;7.95;6.20;;;;;;;;;;6252280;28;20387;-69
2022/05/02 06:08:10;;;;;;;13.60;6.82;;;;;;;;;;6250316;28;20052;-69
2022/05/02 06:11:12;;;;;;;11.45;6.70;;;;;;;;;;6243013;28;20068;-69
2022/05/02 06:14:16;;;;;;;11.45;7.57;;;;;;;;;;6241883;28;20045;-68
2022/05/02 06:20:39;;;;;;;8.90;6.18;;;;;;;;;;6251124;28;20228;-69
2022/05/02 06:23:42;;;;;;;;;;;;;;;;;;6250315;28;20045;-69
2022/05/02 06:26:44;;;;;;;8.48;6.60;;;;;;;;;;6250204;28;19988;-68
2022/05/02 06:29:47;;;;;;;9.05;7.03;;;;;;;;;;6251195;28;20045;-69
2022/05/02 06:32:52;;;;;;;10.88;7.15;;;;;;;;;;6249792;28;20046;-69
2022/05/02 06:36:02;;;;;;;8.73;6.47;;;;;;;;;;6244698;28;20056;-69
2022/05/02 06:39:06;;;;;;;8.25;6.88;;;;;;;;;;6243486;28;20109;-70
2022/05/02 06:42:23;;;;;;;8.27;6.35;;;;;;;;;;6251118;28;20053;-69
2022/05/02 06:45:31;;;;;;;10.88;6.68;;;;;;;;;;6243500;28;20252;-69
2022/05/02 06:48:37;;;;;;;12.55;8.10;;;;;;;;;;6244405;28;20045;-69
2022/05/02 06:51:41;;;;;;;13.80;7.68;;;;;;;;;;6251732;28;20041;-69
2022/05/02 06:55:07;;;;;;;12.27;8.00;;;;;;;;;;6251569;28;20128;-68
2022/05/02 06:58:20;;;;;;;10.85;8.13;;;;;;;;;;6247527;28;20057;-69
2022/05/02 07:01:29;;;;;;;15.00;7.85;;;;;;;;;;6250637;28;20124;-70
2022/05/02 07:04:36;;;;;;;13.50;7.88;;;;;;;;;;6251768;28;20045;-68
2022/05/02 07:07:52;;;;;;;10.43;7.97;;;;;;;;;;6247907;28;20108;-69
2022/05/02 07:10:57;;;;;;;10.68;7.25;;;;;;;;;;6250452;28;20061;-69
2022/05/02 07:14:03;;;;;;;9.82;7.35;;;;;;;;;;6248689;28;20092;-68
2022/05/02 07:17:15;;;;;;;6.97;6.00;;;;;;;;;;6235414;28;20076;-69
2022/05/02 07:20:20;;;;;;;7.75;5.03;;;;;;;;;;6246670;28;20041;-69
2022/05/02 07:23:47;;;;;;;7.25;5.47;;;;;;;;;;6243969;28;20057;-68
2022/05/02 07:26:55;;;;;;;5.60;4.63;;;;;;;;;;6250692;28;20360;-68
2022/05/02 07:29:58;;;;;;;5.82;4.00;;;;;;;;;;6246804;28;20053;-69
2022/05/02 07:33:03;;;;;;;7.80;4.83;;;;;;;;;;6251752;28;20628;-68
2022/05/02 07:36:06;;;;;;;6.05;4.00;;;;;;;;;;6248418;28;20255;-69
2022/05/02 07:39:08;;;;;;;6.17;4.30;;;;;;;;;;6248463;28;20096;-71
2022/05/02 07:42:10;;;;;;;6.57;3.63;;;;;;;;;;6252432;28;20076;-70
2022/05/02 07:45:14;;;;;;;7.32;4.00;;;;;;;;;;6248449;28;20045;-69
2022/05/02 07:48:17;;;;;;;6.88;4.20;;;;;;;;;;6242464;28;20053;-69
2022/05/02 07:51:20;;;;;;;8.73;4.25;;;;;;;;;;6244756;28;20069;-69
2022/05/02 07:54:23;;;;;;;7.32;4.47;;;;;;;;;;6248438;28;20057;-68
2022/05/02 07:57:25;;;;;;;5.43;3.92;;;;;;;;;;6250219;28;25220;-72
2022/05/02 08:00:26;;;;;;;5.80;4.10;;;;;;;;;;6241111;28;20096;-72
2022/05/02 08:03:29;;;;;;;5.55;4.22;;;;;;;;;;6247037;28;20255;-71
2022/05/02 08:06:54;;;;;;;5.25;4.18;;;;;;;;;;6247676;28;20045;-70
2022/05/02 08:10:51;;;;;;;6.78;3.83;;;;;;;;;;6249339;28;20122;-70
2022/05/02 08:14:02;;;;;;;4.53;4.13;;;;;;;;;;6174922;28;20059;-70
2022/05/02 08:17:08;;;;;;;5.05;4.15;;;;;;;;;;6170878;28;20094;-70
2022/05/02 08:20:16;;;;;;;6.38;4.60;;;;;;;;;;6171016;28;20051;-70
2022/05/02 08:27:20;;;;;;;6.68;4.90;;;;;;;;;;6169228;28;20297;-69
2022/05/02 08:30:24;;;;;;;5.65;5.05;;;;;;;;;;6168604;28;20047;-68
2022/05/02 08:33:26;;;;;;;;;;;;;;;;;;6169948;28;20059;-69
2022/05/02 08:36:43;;;;;;;4.80;4.00;;;;;;;;;;6175238;28;20189;-69
2022/05/02 08:39:54;;;;;;;8.55;5.20;;;;;;;;;;6173247;28;20055;-68
2022/05/02 08:43:20;;;;;;;5.13;4.53;;;;;;;;;;6173892;28;20047;-70
2022/05/02 08:47:01;;;;;;;5.25;4.38;;;;;;;;;;6176173;28;20058;-69
2022/05/02 08:50:23;;;;;;;5.55;4.22;;;;;;;;;;6236677;28;20057;-66
2022/05/02 08:54:03;;;;;;;4.72;3.88;;;;;;;;;;6247183;28;20062;-68
2022/05/02 08:57:39;;;;;;;6.15;4.55;;;;;;;;;;6245565;28;20077;-68
2022/05/02 09:00:53;;;;;;;7.07;3.58;;;;;;;;;;6252345;28;20306;-68
2022/05/02 09:04:11;;;;;;;4.38;3.10;;;;;;;;;;6252223;28;20069;-69
2022/05/02 09:07:50;;;;;;;6.72;3.70;;;;;;;;;;6253885;28;20050;-68
2022/05/02 09:11:31;;;;;;;4.65;3.80;;;;;;;;;;6245350;28;20093;-69
2022/05/02 09:15:13;;;;;;;3.83;3.13;;;;;;;;;;6251053;28;20331;-69
2022/05/02 09:18:54;;;;;;;7.80;3.50;;;;;;;;;;6232804;28;20111;-69
2022/05/02 09:22:33;;;;;;;3.90;3.50;;;;;;;;;;6253177;28;20049;-69
2022/05/02 09:25:36;;;;;;;4.32;3.92;;;;;;;;;;6256629;28;20060;-69
2022/05/02 09:28:52;;;;;;;5.30;3.78;;;;;;;;;;6252537;28;20144;-69
2022/05/02 09:31:59;;;;;;;4.82;3.20;;;;;;;;;;6256633;28;20375;-69
2022/05/02 09:35:04;;;;;;;6.20;4.25;;;;;;;;;;6253604;28;20107;-69
2022/05/02 09:38:18;;;;;;;4.68;3.88;;;;;;;;;;6252628;28;20221;-66
2022/05/02 09:41:37;;;;;;;4.35;3.95;;;;;;;;;;6246788;28;20061;-69
2022/05/02 09:52:12;;;;;;;4.85;4.35;;;;;;;;;;6254302;28;20050;-69
2022/05/02 09:58:51;;;;;;;;;;;;;;;;;;6248684;28;20148;-68
2022/05/02 10:02:02;;;;;;;4.38;3.97;;;;;;;;;;6251685;28;19925;-69
2022/05/02 10:05:06;;;;;;;4.28;3.40;;;;;;;;;;6244770;28;20050;-69
2022/05/02 10:08:15;;;;;;;4.25;3.72;;;;;;;;;;6246451;28;20056;-69
2022/05/02 10:11:54;;;;;;;4.07;3.67;;;;;;;;;;6249524;28;20099;-69
2022/05/02 10:15:24;;;;;;;3.95;3.13;;;;;;;;;;6248048;28;20229;-70
2022/05/02 10:18:52;;;;;;;7.93;4.10;;;;;;;;;;6247684;28;20049;-69
2022/05/02 10:22:24;;;;;;;5.57;3.90;;;;;;;;;;6249748;28;20057;-70
2022/05/02 10:25:36;;;;;;;4.88;3.67;;;;;;;;;;6172236;28;20154;-69
2022/05/02 10:28:51;;;;;;;5.13;4.10;;;;;;;;;;6172098;28;20062;-69
2022/05/02 10:32:03;;;;;;;4.38;3.97;;;;;;;;;;6172640;28;20053;-69
2022/05/02 10:35:07;;;;;;;4.00;3.70;;;;;;;;;;6172349;28;20121;-68
2022/05/02 10:38:10;;;;;;;5.45;3.70;;;;;;;;;;6172614;28;20059;-68
2022/05/02 10:41:13;;;;;;;4.47;3.88;;;;;;;;;;6170372;28;20054;-69
2022/05/02 10:44:16;;;;;;;6.00;4.53;;;;;;;;;;6175455;28;20077;-69
2022/05/02 10:47:20;;;;;;;5.03;4.60;;;;;;;;;;6171001;28;20342;-68
2022/05/02 10:50:22;;;;;;;6.63;4.60;;;;;;;;;;6171905;28;20058;-70
2022/05/02 10:53:35;;;;;;;4.18;3.88;;;;;;;;;;6175289;28;20051;-70
2022/05/02 10:56:43;;;;;;;4.63;4.22;;;;;;;;;;6168998;28;20408;-68
2022/05/02 10:59:45;;;;;;;4.43;4.03;;;;;;;;;;6180986;28;20049;-71
2022/05/02 11:02:52;;;;;;;;;;;;;;;;;;6243181;28;20057;-68
2022/05/02 11:06:04;;;;;;;5.18;4.50;;;;;;;;;;6242540;28;19928;-69
2022/05/02 11:09:11;;;;;;;7.32;5.05;;;;;;;;;;6246883;28;20053;-70
2022/05/02 11:12:15;;;;;;;6.60;5.28;;;;;;;;;;6240553;28;20066;-70
2022/05/02 11:15:18;;;;;;;6.45;5.13;;;;;;;;;;6241576;28;20166;-70
2022/05/02 11:21:55;;;;;;;5.07;4.57;;;;;;;;;;6249069;28;20041;-70
2022/05/02 11:25:06;;;;;;;7.18;4.70;;;;;;;;;;6242609;28;20050;-70
2022/05/02 11:28:21;;;;;;;4.68;3.63;;;;;;;;;;6245171;28;20080;-68
2022/05/02 11:31:25;;;;;;;24.35;18.00;;;;;;;;;;6248517;28;20076;-66
2022/05/02 11:34:37;;;;;;;39.53;25.80;;;;;;;;;;6247037;28;20050;-65
2022/05/02 11:37:52;;;;;;;12.35;11.13;;;;;;;;;;6245949;28;20293;-65
2022/05/02 11:41:00;;;;;;;7.47;4.72;;;;;;;;;;6250826;28;20053;-65
2022/05/02 11:44:09;;;;;;;5.47;4.60;;;;;;;;;;6246707;28;20050;-65
2022/05/02 11:47:17;;;;;;;5.97;5.05;;;;;;;;;;6247829;28;20059;-67
2022/05/02 11:50:22;;;;;;;11.18;4.57;;;;;;;;;;6250357;28;20087;-64
2022/05/02 11:53:26;;;;;;;8.25;4.95;;;;;;;;;;6247951;28;20049;-65
2022/05/02 11:56:33;;;;;;;4.97;4.32;;;;;;;;;;6243448;28;20177;-65
2022/05/02 11:59:44;;;;;;;9.15;4.32;;;;;;;;;;6249567;28;20100;-65
2022/05/02 12:02:55;;;;;;;5.15;4.65;;;;;;;;;;6248558;28;20049;-65
2022/05/02 12:06:02;;;;;;;6.97;4.47;;;;;;;;;;6242635;28;20320;-65
2022/05/02 12:09:04;;;;;;;6.15;4.78;;;;;;;;;;6234716;28;20062;-65
2022/05/02 12:12:08;;;;;;;4.88;4.38;;;;;;;;;;6244704;28;20048;-65
2022/05/02 12:15:12;;;;;;;4.93;3.67;;;;;;;;;;6253897;28;20050;-64
2022/05/02 12:18:14;;;;;;;4.40;3.97;;;;;;;;;;6250133;28;20222;-65
2022/05/02 12:21:22;;;;;;;7.43;4.43;;;;;;;;;;6253654;28;20115;-65
2022/05/02 12:24:28;;;;;;;4.55;3.70;;;;;;;;;;6249742;28;20065;-65
2022/05/02 12:27:32;;;;;;;5.72;4.70;;;;;;;;;;6250731;28;20049;-65
2022/05/02 12:30:34;;;;;;;5.63;4.85;;;;;;;;;;6251811;28;20065;-65
2022/05/02 12:33:40;;;;;;;7.05;4.15;;;;;;;;;;6248304;28;20301;-65
2022/05/02 12:36:52;;;;;;;6.47;5.20;;;;;;;;;;6253876;28;20125;-65
2022/05/02 12:40:01;;;;;;;6.15;4.50;;;;;;;;;;6247921;28;20402;-65
2022/05/02 12:43:10;;;;;;;5.85;4.15;;;;;;;;;;6251589;28;20064;-65
2022/05/02 12:46:12;;;;;;;5.80;5.07;;;;;;;;;;6250683;28;20197;-65
2022/05/02 12:49:22;;;;;;;7.68;4.43;;;;;;;;;;6248604;28;20143;-65
2022/05/02 12:52:26;;;;;;;5.93;4.72;;;;;;;;;;6250701;28;20111;-66
2022/05/02 12:55:31;;;;;;;5.70;4.90;;;;;;;;;;6253662;28;20072;-65
2022/05/02 13:01:59;;;;;;;6.78;4.35;;;;;;;;;;6252162;28;20045;-65
2022/05/02 13:05:03;;;;;;;4.25;3.58;;;;;;;;;;6249504;28;20140;-66
2022/05/02 13:08:09;;;;;;;4.22;3.67;;;;;;;;;;6250712;28;20061;-66
2022/05/02 13:11:12;;;;;;;4.25;3.85;;;;;;;;;;6247417;28;20231;-66
2022/05/02 13:14:23;;;;;;;5.32;3.65;;;;;;;;;;6248197;28;20061;-66
2022/05/02 13:17:25;;;;;;;4.38;3.97;;;;;;;;;;6249042;28;20297;-66
2022/05/02 13:20:28;;;;;;;6.63;4.70;;;;;;;;;;6248863;28;20045;-66
2022/05/02 13:23:38;;;;;;;7.03;4.68;;;;;;;;;;6245687;28;20113;-66
2022/05/02 13:27:12;;;;;;;5.57;5.03;;;;;;;;;;6249856;28;20120;-66
2022/05/02 13:30:17;;;;;;;5.68;4.78;;;;;;;;;;6248505;28;20307;-66
2022/05/02 13:33:20;;;;;;;5.45;4.78;;;;;;;;;;6244981;28;20068;-66
2022/05/02 13:36:22;;;;;;;4.53;4.10;;;;;;;;;;6248882;28;20050;-66
2022/05/02 13:39:31;;;;;;;4.43;3.93;;;;;;;;;;6245243;28;20100;-66
2022/05/02 13:42:43;;;;;;;5.03;4.13;;;;;;;;;;6247612;28;20518;-66
2022/05/02 13:45:52;;;;;;;4.43;3.97;;;;;;;;;;6246764;28;20052;-65
2022/05/02 13:49:05;;;;;;;5.03;4.00;;;;;;;;;;6245119;28;20046;-65
2022/05/02 13:52:16;;;;;;;4.68;3.78;;;;;;;;;;6244881;28;20045;-65
2022/05/02 13:55:31;;;;;;;5.82;4.00;;;;;;;;;;6247757;28;20100;-66
2022/05/02 13:58:50;;;;;;;7.60;4.32;;;;;;;;;;6249346;28;20064;-65
2022/05/02 14:02:00;;;;;;;4.65;4.22;;;;;;;;;;6256201;28;20057;-66
2022/05/02 14:05:10;;;;;;;5.25;4.75;;;;;;;;;;6246232;28;20058;-65
2022/05/02 14:08:12;;;;;;;5.35;4.68;;;;;;;;;;6251636;28;20057;-66
2022/05/02 14:11:17;;;;;;;8.20;4.68;;;;;;;;;;6247296;28;20092;-66
2022/05/02 14:14:19;;;;;;;8.43;5.15;;;;;;;;;;6247520;28;20125;-65
2022/05/02 14:17:30;;;;;;;7.33;4.73;;;;;;;;;;6244609;28;20064;-67
2022/05/02 14:20:35;;;;;;;5.53;4.60;;;;;;;;;;6241997;28;20655;-66
2022/05/02 14:23:46;;;;;;;7.78;5.50;;;;;;;;;;6244474;28;20112;-66
2022/05/02 14:26:56;;;;;;;5.65;5.15;;;;;;;;;;6242694;28;20178;-66
2022/05/02 14:30:02;;;;;;;10.18;5.13;;;;;;;;;;6253733;28;20121;-66
2022/05/02 14:33:06;;;;;;;6.53;5.85;;;;;;;;;;6251581;28;20107;-66
2022/05/02 14:36:09;;;;;;;5.65;5.15;;;;;;;;;;6251167;28;20347;-66
2022/05/02 14:39:14;;;;;;;7.50;5.43;;;;;;;;;;6248171;28;20057;-67
2022/05/02 14:42:16;;;;;;;6.70;5.38;;;;;;;;;;6253543;28;20375;-67
2022/05/02 14:45:19;;;;;;;13.73;5.30;;;;;;;;;;6249791;28;20050;-66
2022/05/02 14:48:23;;;;;;;5.88;4.53;;;;;;;;;;6248124;28;20235;-66
2022/05/02 14:51:28;;;;;;;31.40;23.02;;;;;;;;;;6249300;28;20192;-65
2022/05/02 14:54:31;;;;;;;19.95;14.00;;;;;;;;;;6251314;28;20056;-66
2022/05/02 14:57:35;;;;;;;10.85;5.68;;;;;;;;;;6244771;28;20045;-67
2022/05/02 15:00:41;;;;;;;6.35;4.97;;;;;;;;;;6247732;28;20283;-66
2022/05/02 15:03:47;;;;;;;5.60;5.10;;;;;;;;;;6245347;28;20076;-66
2022/05/02 15:06:51;;;;;;;6.55;4.82;;;;;;;;;;6250463;28;20073;-66
2022/05/02 15:10:15;;;;;;;8.52;5.80;;;;;;;;;;6239342;28;20050;-66
2022/05/02 15:13:46;;;;;;;5.38;4.88;;;;;;;;;;6244103;28;20057;-66
2022/05/02 15:16:58;;;;;;;6.03;4.65;;;;;;;;;;6228365;28;20201;-67
2022/05/02 15:20:17;;;;;;;5.18;4.53;;;;;;;;;;6247406;28;20248;-67
2022/05/02 15:23:19;;;;;;;6.53;4.55;;;;;;;;;;6242575;28;20108;-65
2022/05/02 15:26:49;;;;;;;6.22;4.03;;;;;;;;;;6244880;28;20053;-67
2022/05/02 15:36:53;;;;;;;7.05;4.50;;;;;;;;;;6248251;28;20573;-66
2022/05/02 15:39:55;;;;;;;5.88;4.30;;;;;;;;;;6243106;28;20066;-66
2022/05/02 15:43:19;;;;;;;5.47;4.30;;;;;;;;;;6245221;28;20125;-66
2022/05/02 15:46:21;;;;;;;6.80;3.95;;;;;;;;;;6244787;28;20324;-66
2022/05/02 15:49:24;;;;;;;6.07;3.92;;;;;;;;;;6248253;28;20426;-66
2022/05/02 15:52:28;;;;;;;4.32;3.78;;;;;;;;;;6241343;28;20049;-66
2022/05/02 15:55:54;;;;;;;4.88;4.18;;;;;;;;;;6243848;28;20332;-66
2022/05/02 15:59:01;;;;;;;6.15;4.15;;;;;;;;;;6244249;28;20236;-66
2022/05/02 16:02:04;;;;;;;6.20;3.60;;;;;;;;;;6237430;28;20122;-66
2022/05/02 16:05:12;;;;;;;7.70;3.80;;;;;;;;;;6245490;28;20049;-66
2022/05/02 16:11:37;;;;;;;11.95;9.07;;;;;;;;;;6245047;28;20108;-67
2022/05/02 16:14:40;;;;;;;11.38;5.38;;;;;;;;;;6243736;28;20099;-66
2022/05/02 16:17:46;;;;;;;5.45;4.72;;;;;;;;;;6242289;28;20117;-66
2022/05/02 16:20:47;;;;;;;6.53;3.83;;;;;;;;;;6248621;28;20049;-65
2022/05/02 16:23:51;;;;;;;5.22;3.85;;;;;;;;;;6241260;28;20252;-65
2022/05/02 16:26:54;;;;;;;;;;;;;;;;;;6246735;28;20073;-65
2022/05/02 16:29:57;;;;;;;5.28;3.85;;;;;;;;;;6231773;28;20188;-66
2022/05/02 16:32:59;;;;;;;15.30;3.95;;;;;;;;;;6243233;28;20045;-65
2022/05/02 16:36:01;;;;;;;5.32;3.10;;;;;;;;;;6243985;28;20042;-65
2022/05/02 16:39:05;;;;;;;6.57;3.30;;;;;;;;;;6242639;28;20053;-65
2022/05/02 16:42:06;;;;;;;4.40;3.58;;;;;;;;;;6248298;28;20057;-65
2022/05/02 16:45:11;;;;;;;4.20;3.28;;;;;;;;;;6243164;28;20052;-68
2022/05/02 16:48:12;;;;;;;3.70;3.13;;;;;;;;;;6244226;28;20053;-65
2022/05/02 16:51:20;;;;;;;3.80;2.67;;;;;;;;;;6244172;28;20049;-66
2022/05/02 16:54:24;;;;;;;3.78;3.40;;;;;;;;;;6245146;28;20069;-63
2022/05/02 16:57:32;;;;;;;5.20;3.78;;;;;;;;;;6249659;28;20231;-64
2022/05/02 17:00:36;;;;;;;4.93;3.25;;;;;;;;;;6256038;28;20103;-65
2022/05/02 17:03:41;;;;;;;3.50;2.90;;;;;;;;;;6254823;28;20231;-66
2022/05/02 17:06:45;;;;;;;3.65;2.90;;;;;;;;;;6251638;28;20057;-66
2022/05/02 17:09:49;;;;;;;4.80;3.47;;;;;;;;;;6251283;28;20049;-66
2022/05/02 17:12:50;;;;;;;;;;;;;;;;;;6252316;28;20053;-66
2022/05/02 17:16:05;;;;;;;4.15;3.70;;;;;;;;;;6247844;28;20197;-66
2022/05/02 17:19:08;;;;;;;3.97;3.47;;;;;;;;;;6249963;28;20080;-65
2022/05/02 17:22:10;;;;;;;4.38;3.30;;;;;;;;;;6246796;28;20082;-65
2022/05/02 17:25:13;;;;;;;6.95;3.85;;;;;;;;;;6248030;28;20260;-68
2022/05/02 17:28:15;;;;;;;6.22;3.53;;;;;;;;;;6252200;28;20069;-70
2022/05/02 17:31:21;;;;;;;6.60;4.55;;;;;;;;;;6252081;28;20085;-65
2022/05/02 17:34:23;;;;;;;6.65;4.30;;;;;;;;;;6251312;28;20077;-68
2022/05/02 17:37:25;;;;;;;6.43;4.90;;;;;;;;;;6252154;28;20255;-70
2022/05/02 17:40:33;;;;;;;6.82;4.90;;;;;;;;;;6246415;28;20127;-68
2022/05/02 17:43:36;;;;;;;5.72;4.78;;;;;;;;;;6249090;28;20099;-68
2022/05/02 17:46:39;;;;;;;5.90;5.30;;;;;;;;;;6243826;28;20084;-69
2022/05/02 17:49:54;;;;;;;9.65;5.57;;;;;;;;;;6246026;28;20057;-68
2022/05/02 17:52:59;;;;;;;6.15;4.78;;;;;;;;;;6250034;28;20068;-68
2022/05/02 17:56:02;;;;;;;6.78;4.45;;;;;;;;;;6248342;28;20053;-69
2022/05/02 17:59:05;;;;;;;6.68;4.53;;;;;;;;;;6246642;28;20062;-68
2022/05/02 18:02:08;;;;;;;8.10;4.32;;;;;;;;;;6245216;28;20076;-69
2022/05/02 18:05:14;;;;;;;6.88;4.22;;;;;;;;;;6247799;28;20101;-69
2022/05/02 18:08:19;;;;;;;6.32;4.85;;;;;;;;;;6247279;28;20084;-69
2022/05/02 18:14:50;;;;;;;5.97;4.05;;;;;;;;;;6241231;28;20046;-70
2022/05/02 18:17:55;;;;;;;6.18;4.40;;;;;;;;;;6248850;28;20637;-69
2022/05/02 18:21:00;;;;;;;4.60;3.88;;;;;;;;;;6245666;28;20391;-69
2022/05/02 18:24:02;;;;;;;5.32;3.88;;;;;;;;;;6246476;28;20053;-68
2022/05/02 18:27:12;;;;;;;4.45;4.05;;;;;;;;;;6250834;28;20344;-69
2022/05/02 18:30:15;;;;;;;5.78;4.05;;;;;;;;;;6247772;28;20343;-71
2022/05/02 18:33:25;;;;;;;6.57;3.83;;;;;;;;;;6245685;28;20092;-66
2022/05/02 18:36:27;;;;;;;6.03;4.15;;;;;;;;;;6247386;28;20284;-70
2022/05/02 18:39:30;;;;;;;5.68;3.80;;;;;;;;;;6246446;28;20116;-71
2022/05/02 18:42:35;;;;;;;5.85;4.28;;;;;;;;;;6240498;28;20245;-71
2022/05/02 18:53:02;;;;;;;5.80;4.32;;;;;;;;;;6172705;28;20051;-69
2022/05/02 18:56:07;;;;;;;6.70;3.73;;;;;;;;;;6167765;28;20763;-69
2022/05/02 18:59:12;;;;;;;5.97;3.80;;;;;;;;;;6170243;28;20059;-68
2022/05/02 19:02:15;;;;;;;5.55;3.85;;;;;;;;;;6167640;28;20047;-69
2022/05/02 19:05:20;;;;;;;8.85;3.67;;;;;;;;;;6164755;28;20102;-63
2022/05/02 19:08:23;;;;;;;5.80;3.70;;;;;;;;;;6170789;28;20333;-67
2022/05/02 19:11:25;;;;;;;5.78;3.50;;;;;;;;;;6174705;28;20066;-68
2022/05/02 19:14:33;;;;;;;5.00;3.60;;;;;;;;;;6177290;28;20059;-68
2022/05/02 19:17:37;;;;;;;7.75;4.07;;;;;;;;;;6176686;28;20409;-68
2022/05/02 19:20:43;;;;;;;4.38;3.60;;;;;;;;;;6173466;28;20431;-68
2022/05/02 19:23:52;;;;;;;5.22;3.70;;;;;;;;;;6169899;28;20062;-68
2022/05/02 19:26:53;;;;;;;5.28;3.50;;;;;;;;;;6168361;28;20050;-68
2022/05/02 19:30:02;;;;;;;6.15;3.78;;;;;;;;;;6240462;28;20046;-68
2022/05/02 19:33:06;;;;;;;8.52;4.22;;;;;;;;;;6247045;28;20057;-68